createdAt,value
2022-08-08T00:02:30.620Z,18.08
2022-08-08T00:04:58.900Z,18.07
2022-08-08T00:07:54.528Z,18.07
2022-08-08T00:10:39.139Z,18.06
2022-08-08T00:14:15.661Z,18.07
2022-08-08T00:16:29.447Z,18.10
2022-08-08T00:19:17.904Z,18.10
2022-08-08T00:21:56.283Z,18.08
2022-08-08T00:24:45.220Z,18.16
2022-08-08T00:27:13.830Z,18.16
2022-08-08T00:29:46.979Z,18.17
2022-08-08T00:32:34.614Z,18.21
2022-08-08T00:35:24.408Z,18.22
2022-08-08T00:38:51.744Z,18.23
2022-08-08T00:41:55.512Z,18.23
2022-08-08T00:44:38.689Z,18.21
2022-08-08T00:47:36.801Z,18.18
2022-08-08T00:50:53.550Z,18.16
2022-08-08T00:53:29.437Z,18.11
2022-08-08T00:56:41.743Z,18.10
2022-08-08T00:59:48.534Z,18.08
2022-08-08T01:03:59.666Z,18.07
2022-08-08T01:05:59.253Z,18.07
2022-08-08T01:08:50.163Z,18.06
2022-08-08T01:11:39.914Z,18.05
2022-08-08T01:14:18.621Z,18.04
2022-08-08T01:17:20.527Z,18.03
2022-08-08T01:20:27.895Z,18.00
2022-08-08T01:24:03.738Z,17.97
2022-08-08T01:26:35.607Z,17.95
2022-08-08T01:29:28.118Z,17.95
2022-08-08T01:32:40.638Z,17.95
2022-08-08T01:35:18.959Z,17.94
2022-08-08T01:38:03.976Z,17.90
2022-08-08T01:40:34.537Z,17.94
2022-08-08T01:43:23.788Z,17.94
2022-08-08T01:46:08.244Z,17.94
2022-08-08T01:48:38.735Z,17.93
2022-08-08T01:52:49.635Z,17.92
2022-08-08T01:55:27.166Z,17.86
2022-08-08T01:58:14.927Z,17.83
2022-08-08T02:01:03.457Z,17.76
2022-08-08T02:03:55.220Z,17.75
2022-08-08T02:06:49.409Z,17.71
2022-08-08T02:10:01.075Z,17.68
2022-08-08T02:12:26.179Z,17.62
2022-08-08T02:15:05.040Z,17.61
2022-08-08T02:17:51.381Z,17.65
2022-08-08T02:21:00.822Z,17.65
2022-08-08T02:23:32.355Z,17.66
2022-08-08T02:26:11.826Z,17.64
2022-08-08T02:29:14.828Z,17.62
2022-08-08T02:32:32.675Z,17.67
2022-08-08T02:35:14.540Z,17.66
2022-08-08T02:38:09.100Z,17.68
2022-08-08T02:41:03.356Z,17.66
2022-08-08T02:44:37.668Z,17.67
2022-08-08T02:47:11.331Z,17.69
2022-08-08T02:49:56.215Z,17.72
2022-08-08T02:52:50.818Z,17.72
2022-08-08T02:55:57.860Z,17.74
2022-08-08T02:58:44.758Z,17.73
2022-08-08T03:01:51.373Z,17.74
2022-08-08T03:05:09.463Z,17.74
2022-08-08T03:07:58.407Z,17.73
2022-08-08T03:11:13.792Z,17.71
2022-08-08T03:16:00.545Z,17.72
2022-08-08T03:17:40.629Z,17.70
2022-08-08T03:20:08.066Z,17.69
2022-08-08T03:23:04.669Z,17.72
2022-08-08T03:25:35.770Z,17.68
2022-08-08T03:28:10.372Z,17.71
2022-08-08T03:30:42.770Z,17.70
2022-08-08T03:33:56.769Z,17.69
2022-08-08T03:36:05.596Z,17.70
2022-08-08T03:38:56.568Z,17.70
2022-08-08T03:42:04.128Z,17.68
2022-08-08T03:44:25.682Z,17.67
2022-08-08T03:46:53.102Z,17.64
2022-08-08T03:49:58.024Z,17.64
2022-08-08T03:52:13.852Z,17.66
2022-08-08T03:55:02.563Z,17.68
2022-08-08T03:58:30.986Z,17.68
2022-08-08T04:00:20.234Z,17.70
2022-08-08T04:02:59.589Z,17.71
2022-08-08T04:05:29.395Z,17.73
2022-08-08T04:07:58.298Z,17.74
2022-08-08T04:10:26.064Z,17.75
2022-08-08T04:12:59.295Z,17.73
2022-08-08T04:15:30.356Z,17.76
2022-08-08T04:18:05.221Z,17.79
2022-08-08T04:20:32.361Z,17.84
2022-08-08T04:22:59.003Z,17.88
2022-08-08T04:25:32.949Z,17.91
2022-08-08T04:28:35.188Z,17.90
2022-08-08T04:30:51.537Z,17.92
2022-08-08T04:33:21.960Z,17.94
2022-08-08T04:35:51.650Z,17.97
2022-08-08T04:38:21.806Z,17.96
2022-08-08T04:40:53.713Z,17.96
2022-08-08T04:43:22.297Z,17.97
2022-08-08T04:45:58.135Z,17.96
2022-08-08T04:48:25.409Z,17.94
2022-08-08T04:50:53.034Z,17.96
2022-08-08T04:54:37.056Z,17.97
2022-08-08T04:56:07.048Z,17.99
2022-08-08T04:58:33.929Z,18.02
2022-08-08T05:01:00.494Z,18.03
2022-08-08T05:04:10.926Z,18.03
2022-08-08T05:06:25.755Z,18.05
2022-08-08T05:08:55.797Z,18.06
2022-08-08T05:11:24.546Z,18.05
2022-08-08T05:13:58.191Z,18.02
2022-08-08T05:16:52.408Z,18.04
2022-08-08T05:20:09.478Z,18.03
2022-08-08T05:22:02.639Z,18.06
2022-08-08T05:24:30.880Z,18.03
2022-08-08T05:26:58.298Z,18.07
2022-08-08T05:29:29.057Z,18.09
2022-08-08T05:32:04.865Z,18.06
2022-08-08T05:34:36.983Z,18.05
2022-08-08T05:37:07.479Z,18.01
2022-08-08T05:39:52.815Z,18.05
2022-08-08T05:42:20.661Z,18.05
2022-08-08T05:44:53.303Z,18.01
2022-08-08T05:47:22.276Z,17.97
2022-08-08T05:49:54.163Z,17.93
2022-08-08T05:52:31.883Z,17.90
2022-08-08T05:55:04.649Z,17.90
2022-08-08T05:58:04.866Z,17.91
2022-08-08T06:00:26.393Z,17.93
2022-08-08T06:03:10.534Z,17.93
2022-08-08T06:05:52.160Z,17.91
2022-08-08T06:08:35.377Z,17.94
2022-08-08T06:11:03.092Z,17.96
2022-08-08T06:13:36.277Z,18.02
2022-08-08T06:16:14.903Z,18.02
2022-08-08T06:18:42.954Z,18.06
2022-08-08T06:21:11.701Z,18.10
2022-08-08T06:24:03.619Z,18.13
2022-08-08T06:26:45.281Z,18.12
2022-08-08T06:29:48.792Z,18.13
2022-08-08T06:32:18.480Z,18.18
2022-08-08T06:35:12.326Z,18.20
2022-08-08T06:37:44.839Z,18.22
2022-08-08T06:40:16.617Z,18.26
2022-08-08T06:43:10.326Z,18.31
2022-08-08T06:45:39.162Z,18.28
2022-08-08T06:48:06.186Z,18.32
2022-08-08T06:50:33.515Z,18.33
2022-08-08T06:53:14.247Z,18.34
2022-08-08T06:55:46.947Z,18.34
2022-08-08T06:58:20.271Z,18.31
2022-08-08T07:00:50.404Z,18.33
2022-08-08T07:04:36.781Z,18.35
2022-08-08T07:06:44.943Z,18.40
2022-08-08T07:09:17.905Z,18.40
2022-08-08T07:11:52.032Z,18.48
2022-08-08T07:14:26.719Z,18.48
2022-08-08T07:17:09.522Z,18.53
2022-08-08T07:19:50.337Z,18.61
2022-08-08T07:22:24.787Z,18.65
2022-08-08T07:24:58.506Z,18.72
2022-08-08T07:27:35.360Z,18.75
2022-08-08T07:30:21.282Z,18.82
2022-08-08T07:32:53.731Z,18.86
2022-08-08T07:35:21.571Z,18.92
2022-08-08T07:38:04.492Z,18.96
2022-08-08T07:40:35.816Z,18.97
2022-08-08T07:43:09.227Z,19.00
2022-08-08T07:46:05.043Z,19.02
2022-08-08T07:48:23.999Z,19.01
2022-08-08T07:50:53.971Z,19.02
2022-08-08T07:54:01.778Z,19.08
2022-08-08T07:56:41.723Z,19.12
2022-08-08T07:59:14.747Z,19.11
2022-08-08T08:02:35.627Z,19.19
2022-08-08T08:04:44.649Z,19.20
2022-08-08T08:07:17.196Z,19.22
2022-08-08T08:09:44.479Z,19.24
2022-08-08T08:12:31.280Z,19.26
2022-08-08T08:15:07.144Z,19.27
2022-08-08T08:17:47.737Z,19.28
2022-08-08T08:20:16.366Z,19.27
2022-08-08T08:22:43.559Z,19.28
2022-08-08T08:25:10.186Z,19.33
2022-08-08T08:27:37.178Z,19.38
2022-08-08T08:30:07.280Z,19.44
2022-08-08T08:32:36.010Z,19.51
2022-08-08T08:35:09.122Z,19.54
2022-08-08T08:37:52.976Z,19.56
2022-08-08T08:40:23.842Z,19.55
2022-08-08T08:42:53.501Z,19.56
2022-08-08T08:45:23.353Z,19.58
2022-08-08T08:47:52.862Z,19.60
2022-08-08T08:50:33.008Z,19.63
2022-08-08T08:53:27.213Z,19.67
2022-08-08T08:56:01.904Z,19.69
2022-08-08T08:58:37.707Z,19.75
2022-08-08T09:01:09.614Z,19.81
2022-08-08T09:03:46.492Z,19.88
2022-08-08T09:06:33.762Z,19.91
2022-08-08T09:09:26.260Z,19.96
2022-08-08T09:12:02.399Z,20.00
2022-08-08T09:14:35.381Z,20.02
2022-08-08T09:17:09.668Z,20.11
2022-08-08T09:22:02.631Z,20.16
2022-08-08T09:22:28.171Z,20.22
2022-08-08T09:24:56.724Z,20.28
2022-08-08T09:27:41.842Z,20.30
2022-08-08T09:30:17.140Z,20.34
2022-08-08T09:33:12.833Z,20.33
2022-08-08T09:35:49.705Z,20.35
2022-08-08T09:38:53.200Z,20.36
2022-08-08T09:41:33.517Z,20.40
2022-08-08T09:44:33.874Z,20.42
2022-08-08T09:47:25.835Z,20.40
2022-08-08T09:49:56.218Z,20.38
2022-08-08T09:52:56.465Z,20.42
2022-08-08T09:55:51.512Z,20.47
2022-08-08T09:58:17.957Z,20.50
2022-08-08T10:00:53.414Z,20.52
2022-08-08T10:03:28.305Z,20.53
2022-08-08T10:05:58.557Z,20.57
2022-08-08T10:08:30.544Z,20.58
2022-08-08T10:11:01.070Z,20.65
2022-08-08T10:13:35.520Z,20.69
2022-08-08T10:16:03.460Z,20.73
2022-08-08T10:18:34.722Z,20.83
2022-08-08T10:21:22.449Z,20.89
2022-08-08T10:23:56.005Z,20.92
2022-08-08T10:26:40.534Z,20.95
2022-08-08T10:29:22.962Z,20.96
2022-08-08T10:32:15.799Z,21.00
2022-08-08T10:34:58.484Z,21.07
2022-08-08T10:37:34.626Z,21.10
2022-08-08T10:40:16.823Z,21.17
2022-08-08T10:42:45.495Z,21.19
2022-08-08T10:45:16.164Z,21.19
2022-08-08T10:47:48.686Z,21.21
2022-08-08T10:50:23.611Z,21.19
2022-08-08T10:52:50.622Z,21.20
2022-08-08T10:55:41.174Z,21.22
2022-08-08T10:58:08.534Z,21.22
2022-08-08T11:00:52.637Z,21.20
2022-08-08T11:03:52.362Z,21.21
2022-08-08T11:06:16.418Z,21.19
2022-08-08T11:08:53.257Z,21.17
2022-08-08T11:11:59.914Z,21.20
2022-08-08T11:14:12.229Z,21.22
2022-08-08T11:16:46.647Z,21.23
2022-08-08T11:19:15.603Z,21.27
2022-08-08T11:21:55.369Z,21.31
2022-08-08T11:24:26.256Z,21.37
2022-08-08T11:26:57.975Z,21.39
2022-08-08T11:29:41.397Z,21.45
2022-08-08T11:32:14.843Z,21.46
2022-08-08T11:35:07.805Z,21.48
2022-08-08T11:38:36.386Z,21.46
2022-08-08T11:40:25.887Z,21.45
2022-08-08T11:42:54.570Z,21.47
2022-08-08T11:45:22.622Z,21.42
2022-08-08T11:48:02.850Z,21.40
2022-08-08T11:50:34.019Z,21.33
2022-08-08T11:53:06.086Z,21.35
2022-08-08T11:55:36.487Z,21.36
2022-08-08T11:58:14.784Z,21.34
2022-08-08T12:00:53.343Z,21.29
2022-08-08T12:03:20.929Z,21.32
2022-08-08T12:05:49.038Z,21.34
2022-08-08T12:08:17.062Z,21.34
2022-08-08T12:10:52.871Z,21.35
2022-08-08T12:13:33.497Z,21.40
2022-08-08T12:16:13.961Z,21.43
2022-08-08T12:18:53.833Z,21.46
2022-08-08T12:21:58.683Z,21.47
2022-08-08T12:24:28.315Z,21.46
2022-08-08T12:26:58.772Z,21.50
2022-08-08T12:29:42.237Z,21.53
2022-08-08T12:32:20.160Z,21.59
2022-08-08T12:35:04.959Z,21.66
2022-08-08T12:37:48.126Z,21.63
2022-08-08T12:40:56.407Z,21.72
2022-08-08T12:43:47.533Z,21.74
2022-08-08T12:46:26.792Z,21.72
2022-08-08T12:51:58.941Z,21.69
2022-08-08T12:54:33.338Z,21.71
2022-08-08T12:57:24.445Z,21.69
2022-08-08T13:00:06.289Z,21.70
2022-08-08T13:02:42.077Z,21.73
2022-08-08T13:05:26.404Z,21.78
2022-08-08T13:08:17.998Z,21.85
2022-08-08T13:10:57.263Z,21.87
2022-08-08T13:13:37.959Z,21.91
2022-08-08T13:16:25.874Z,21.95
2022-08-08T13:18:57.319Z,21.97
2022-08-08T13:21:48.548Z,21.98
2022-08-08T13:24:18.326Z,21.96
2022-08-08T13:27:04.188Z,21.94
2022-08-08T13:29:37.870Z,21.92
2022-08-08T13:32:07.654Z,21.89
2022-08-08T13:34:39.959Z,21.86
2022-08-08T13:37:28.235Z,21.82
2022-08-08T13:40:04.364Z,21.83
2022-08-08T13:42:32.556Z,21.84
2022-08-08T13:45:01.117Z,21.86
2022-08-08T13:47:31.068Z,21.87
2022-08-08T13:50:39.609Z,21.91
2022-08-08T13:52:55.594Z,21.90
2022-08-08T13:55:29.302Z,21.91
2022-08-08T13:58:06.858Z,21.93
2022-08-08T14:00:45.466Z,21.95
2022-08-08T14:03:47.149Z,21.92
2022-08-08T14:06:32.190Z,21.96
2022-08-08T14:08:57.703Z,21.99
2022-08-08T14:11:28.331Z,22.01
2022-08-08T14:13:59.605Z,22.03
2022-08-08T14:16:27.850Z,22.04
2022-08-08T14:19:01.040Z,22.05
2022-08-08T14:21:52.102Z,22.05
2022-08-08T14:24:33.859Z,22.01
2022-08-08T14:27:01.742Z,22.00
2022-08-08T14:29:34.541Z,21.98
2022-08-08T14:32:11.861Z,21.99
2022-08-08T14:34:43.422Z,21.96
2022-08-08T14:37:12.968Z,21.93
2022-08-08T14:39:54.051Z,21.91
2022-08-08T14:42:55.089Z,21.86
2022-08-08T14:45:33.739Z,21.81
2022-08-08T14:48:12.917Z,21.72
2022-08-08T14:50:43.377Z,21.73
2022-08-08T14:53:14.324Z,21.69
2022-08-08T14:55:43.036Z,21.66
2022-08-08T14:58:12.184Z,21.64
2022-08-08T15:00:44.897Z,21.63
2022-08-08T15:03:15.861Z,21.61
2022-08-08T15:05:53.801Z,21.57
2022-08-08T15:08:34.585Z,21.55
2022-08-08T15:11:06.319Z,21.52
2022-08-08T15:13:39.737Z,21.48
2022-08-08T15:16:12.009Z,21.49
2022-08-08T15:18:44.256Z,21.44
2022-08-08T15:21:17.848Z,21.46
2022-08-08T15:23:44.476Z,21.44
2022-08-08T15:26:18.565Z,21.47
2022-08-08T15:28:45.264Z,21.45
2022-08-08T15:31:55.778Z,21.44
2022-08-08T15:34:00.140Z,21.46
2022-08-08T15:36:28.812Z,21.42
2022-08-08T15:38:56.120Z,21.43
2022-08-08T15:41:24.870Z,21.45
2022-08-08T15:44:00.893Z,21.40
2022-08-08T15:46:35.169Z,21.43
2022-08-08T15:49:04.214Z,21.59
2022-08-08T15:51:33.738Z,22.01
2022-08-08T15:54:01.050Z,22.62
2022-08-08T15:56:27.617Z,23.28
2022-08-08T15:58:54.197Z,23.88
2022-08-08T16:01:22.490Z,24.35
2022-08-08T16:03:51.750Z,24.83
2022-08-08T16:06:28.429Z,25.27
2022-08-08T16:13:02.319Z,25.60
2022-08-08T16:13:04.841Z,25.74
2022-08-08T16:14:32.332Z,25.70
2022-08-08T16:17:01.064Z,25.55
2022-08-08T16:19:30.125Z,25.37
2022-08-08T16:21:58.054Z,25.16
2022-08-08T16:24:24.714Z,24.94
2022-08-08T16:26:51.544Z,24.76
2022-08-08T16:29:37.111Z,24.50
2022-08-08T16:32:11.173Z,24.23
2022-08-08T16:34:40.410Z,24.01
2022-08-08T16:37:07.318Z,23.80
2022-08-08T16:40:01.838Z,23.61
2022-08-08T16:42:20.813Z,23.41
2022-08-08T16:44:54.665Z,23.24
2022-08-08T16:47:39.881Z,23.07
2022-08-08T16:50:14.351Z,22.92
2022-08-08T16:55:01.956Z,22.81
2022-08-08T16:55:54.269Z,22.66
2022-08-08T16:58:20.398Z,22.53
2022-08-08T17:00:48.941Z,22.43
2022-08-08T17:03:25.094Z,22.36
2022-08-08T17:06:05.763Z,22.23
2022-08-08T17:08:52.333Z,22.13
2022-08-08T17:11:19.930Z,22.05
2022-08-08T17:14:00.701Z,21.91
2022-08-08T17:16:28.809Z,21.83
2022-08-08T17:18:55.765Z,21.74
2022-08-08T17:21:22.586Z,21.64
2022-08-08T17:24:00.040Z,21.51
2022-08-08T17:26:29.184Z,21.45
2022-08-08T17:29:03.941Z,21.36
2022-08-08T17:31:44.743Z,21.27
2022-08-08T17:34:48.383Z,21.19
2022-08-08T17:37:03.778Z,21.09
2022-08-08T17:40:04.163Z,21.01
2022-08-08T17:42:19.902Z,20.90
2022-08-08T17:44:50.563Z,20.84
2022-08-08T17:47:23.867Z,20.75
2022-08-08T17:49:52.622Z,20.69
2022-08-08T17:52:23.305Z,20.61
2022-08-08T17:54:52.014Z,20.54
2022-08-08T17:57:23.448Z,20.44
2022-08-08T17:59:51.740Z,20.38
2022-08-08T18:02:29.121Z,20.28
2022-08-08T18:04:58.364Z,20.21
2022-08-08T18:08:02.356Z,20.18
2022-08-08T18:10:14.043Z,20.12
2022-08-08T18:12:42.999Z,20.06
2022-08-08T18:15:13.060Z,20.01
2022-08-08T18:18:09.697Z,19.94
2022-08-08T18:20:43.111Z,19.88
2022-08-08T18:23:15.074Z,19.82
2022-08-08T18:25:42.658Z,19.79
2022-08-08T18:28:13.698Z,19.76
2022-08-08T18:30:42.784Z,19.70
2022-08-08T18:33:36.602Z,19.67
2022-08-08T18:36:02.571Z,19.62
2022-08-08T18:38:30.683Z,19.61
2022-08-08T18:40:57.458Z,19.57
2022-08-08T18:43:25.211Z,19.55
2022-08-08T18:46:55.822Z,19.50
2022-08-08T18:48:57.178Z,19.46
2022-08-08T18:51:48.385Z,19.40
2022-08-08T18:54:22.490Z,19.35
2022-08-08T18:56:53.741Z,19.33
2022-08-08T18:59:20.404Z,19.30
2022-08-08T19:02:25.771Z,19.29
2022-08-08T19:04:36.447Z,19.26
2022-08-08T19:07:03.742Z,19.24
2022-08-08T19:09:48.287Z,19.23
2022-08-08T19:12:15.476Z,19.17
2022-08-08T19:14:43.651Z,19.16
2022-08-08T19:17:11.065Z,19.13
2022-08-08T19:19:44.106Z,19.09
2022-08-08T19:22:11.126Z,19.07
2022-08-08T19:24:42.931Z,19.02
2022-08-08T19:27:52.853Z,18.99
2022-08-08T19:30:24.061Z,18.98
2022-08-08T19:32:53.341Z,18.95
2022-08-08T19:35:25.316Z,18.93
2022-08-08T19:37:57.596Z,18.90
2022-08-08T19:40:31.080Z,18.84
2022-08-08T19:42:59.600Z,18.79
2022-08-08T19:45:59.425Z,18.76
2022-08-08T19:48:29.286Z,18.77
2022-08-08T19:50:59.581Z,18.72
2022-08-08T19:53:52.030Z,18.73
2022-08-08T19:56:16.467Z,18.67
2022-08-08T19:58:52.884Z,18.69
2022-08-08T20:01:31.701Z,18.68
2022-08-08T20:04:08.411Z,18.64
2022-08-08T20:06:35.849Z,18.61
2022-08-08T20:09:08.635Z,18.57
2022-08-08T20:11:43.915Z,18.58
2022-08-08T20:14:32.092Z,18.56
2022-08-08T20:16:57.491Z,18.55
2022-08-08T20:19:26.763Z,18.55
2022-08-08T20:22:05.015Z,18.51
2022-08-08T20:24:39.529Z,18.52
2022-08-08T20:27:06.433Z,18.52
2022-08-08T20:29:56.087Z,18.50
2022-08-08T20:32:26.806Z,18.46
2022-08-08T20:35:01.207Z,18.44
2022-08-08T20:37:46.765Z,18.46
2022-08-08T20:40:17.056Z,18.47
2022-08-08T20:42:55.203Z,18.45
2022-08-08T20:45:54.397Z,18.47
2022-08-08T20:48:09.612Z,18.46
2022-08-08T20:50:36.645Z,18.43
2022-08-08T20:53:10.827Z,18.42
2022-08-08T20:55:45.215Z,18.42
2022-08-08T20:58:22.874Z,18.40
2022-08-08T21:00:50.280Z,18.39
2022-08-08T21:03:17.297Z,18.38
2022-08-08T21:05:58.510Z,18.39
2022-08-08T21:08:36.167Z,18.38
2022-08-08T21:11:12.490Z,18.38
2022-08-08T21:13:41.993Z,18.35
2022-08-08T21:16:18.152Z,18.35
2022-08-08T21:18:57.497Z,18.33
2022-08-08T21:21:39.979Z,18.31
2022-08-08T21:24:22.322Z,18.26
2022-08-08T21:26:54.026Z,18.27
2022-08-08T21:29:23.010Z,18.27
2022-08-08T21:32:19.079Z,18.26
2022-08-08T21:34:49.465Z,18.25
2022-08-08T21:37:19.181Z,18.24
2022-08-08T21:39:56.726Z,18.22
2022-08-08T21:42:24.127Z,18.20
2022-08-08T21:44:58.749Z,18.22
2022-08-08T21:48:05.023Z,18.21
2022-08-08T21:50:14.444Z,18.17
2022-08-08T21:54:31.089Z,18.19
2022-08-08T21:56:19.749Z,18.18
2022-08-08T21:58:17.257Z,18.17
2022-08-08T22:00:44.024Z,18.16
2022-08-08T22:03:17.644Z,18.14
2022-08-08T22:05:44.934Z,18.16
2022-08-08T22:08:15.140Z,18.13
2022-08-08T22:10:41.806Z,18.13
2022-08-08T22:13:18.065Z,18.13
2022-08-08T22:15:58.624Z,18.16
2022-08-08T22:18:31.615Z,18.15
2022-08-08T22:21:10.832Z,18.16
2022-08-08T22:23:51.777Z,18.19
2022-08-08T22:26:28.733Z,18.19
2022-08-08T22:29:13.254Z,18.16
2022-08-08T22:31:58.686Z,18.18
2022-08-08T22:34:39.334Z,18.13
2022-08-08T22:37:07.030Z,18.18
2022-08-08T22:40:00.556Z,18.19
2022-08-08T22:42:32.019Z,18.17
2022-08-08T22:45:02.945Z,18.21
2022-08-08T22:47:37.738Z,18.21
2022-08-08T22:50:09.874Z,18.21
2022-08-08T22:54:15.734Z,18.21
2022-08-08T22:55:59.230Z,18.19
2022-08-08T22:58:29.182Z,18.20
2022-08-08T23:01:00.007Z,18.18
2022-08-08T23:03:34.065Z,18.20
2022-08-08T23:06:16.333Z,18.13
2022-08-08T23:08:54.579Z,18.16
2022-08-08T23:11:30.905Z,18.13
2022-08-08T23:14:11.317Z,18.11
2022-08-08T23:16:43.872Z,18.08
2022-08-08T23:19:15.270Z,18.07
2022-08-08T23:21:42.465Z,18.04
2022-08-08T23:24:09.307Z,18.07
2022-08-08T23:26:35.923Z,18.05
2022-08-08T23:29:10.841Z,18.05
2022-08-08T23:31:41.550Z,18.03
2022-08-08T23:34:17.097Z,17.99
2022-08-08T23:36:46.726Z,17.94
2022-08-08T23:39:13.913Z,17.88
2022-08-08T23:41:47.269Z,17.89
2022-08-08T23:44:18.560Z,17.85
2022-08-08T23:49:05.195Z,17.77
2022-08-08T23:49:33.733Z,17.71
2022-08-08T23:52:07.217Z,17.64
2022-08-08T23:54:43.548Z,17.63
2022-08-08T23:57:38.706Z,17.63
